sensor_id;sensor_type;location;lat;lon;timestamp;P1;durP1;ratioP1;P2;durP2;ratioP2
19285;SDS011;9776;50.798;6.430;2023-05-17T00:00:52;3.20;;;1.85;;
19285;SDS011;9776;50.798;6.430;2023-05-17T00:03:19;3.63;;;1.80;;
19285;SDS011;9776;50.798;6.430;2023-05-17T00:05:46;6.63;;;1.90;;
19285;SDS011;9776;50.798;6.430;2023-05-17T00:08:14;3.92;;;2.08;;
19285;SDS011;9776;50.798;6.430;2023-05-17T00:10:41;3.10;;;2.00;;
19285;SDS011;9776;50.798;6.430;2023-05-17T00:13:08;3.42;;;1.80;;
19285;SDS011;9776;50.798;6.430;2023-05-17T00:15:35;5.50;;;2.15;;
19285;SDS011;9776;50.798;6.430;2023-05-17T00:18:02;6.20;;;2.45;;
19285;SDS011;9776;50.798;6.430;2023-05-17T00:20:29;5.05;;;2.08;;
19285;SDS011;9776;50.798;6.430;2023-05-17T00:22:55;4.38;;;2.08;;
19285;SDS011;9776;50.798;6.430;2023-05-17T00:25:23;6.90;;;2.30;;
19285;SDS011;9776;50.798;6.430;2023-05-17T00:27:50;3.75;;;2.38;;
19285;SDS011;9776;50.798;6.430;2023-05-17T00:30:17;4.05;;;2.40;;
19285;SDS011;9776;50.798;6.430;2023-05-17T00:32:44;4.80;;;2.45;;
19285;SDS011;9776;50.798;6.430;2023-05-17T00:35:12;4.80;;;2.08;;
19285;SDS011;9776;50.798;6.430;2023-05-17T00:37:39;3.53;;;2.17;;
19285;SDS011;9776;50.798;6.430;2023-05-17T00:40:08;4.65;;;2.30;;
19285;SDS011;9776;50.798;6.430;2023-05-17T00:42:37;4.68;;;2.40;;
19285;SDS011;9776;50.798;6.430;2023-05-17T00:45:04;3.92;;;2.45;;
19285;SDS011;9776;50.798;6.430;2023-05-17T00:47:31;3.97;;;2.03;;
19285;SDS011;9776;50.798;6.430;2023-05-17T00:49:58;3.85;;;2.50;;
19285;SDS011;9776;50.798;6.430;2023-05-17T00:52:25;5.07;;;2.50;;
19285;SDS011;9776;50.798;6.430;2023-05-17T00:54:52;5.45;;;2.20;;
19285;SDS011;9776;50.798;6.430;2023-05-17T00:57:19;6.38;;;3.05;;
19285;SDS011;9776;50.798;6.430;2023-05-17T00:59:48;8.27;;;2.95;;
19285;SDS011;9776;50.798;6.430;2023-05-17T01:02:16;4.07;;;2.63;;
19285;SDS011;9776;50.798;6.430;2023-05-17T01:04:43;6.75;;;2.88;;
19285;SDS011;9776;50.798;6.430;2023-05-17T01:07:10;5.43;;;2.67;;
19285;SDS011;9776;50.798;6.430;2023-05-17T01:09:36;6.32;;;2.85;;
19285;SDS011;9776;50.798;6.430;2023-05-17T01:12:05;4.05;;;2.78;;
19285;SDS011;9776;50.798;6.430;2023-05-17T01:14:40;5.93;;;3.08;;
19285;SDS011;9776;50.798;6.430;2023-05-17T01:17:15;6.28;;;2.92;;
19285;SDS011;9776;50.798;6.430;2023-05-17T01:19:52;4.80;;;2.92;;
19285;SDS011;9776;50.798;6.430;2023-05-17T01:22:30;7.03;;;2.97;;
19285;SDS011;9776;50.798;6.430;2023-05-17T01:25:14;5.15;;;2.80;;
19285;SDS011;9776;50.798;6.430;2023-05-17T01:27:58;6.85;;;3.13;;
19285;SDS011;9776;50.798;6.430;2023-05-17T01:30:27;4.80;;;3.05;;
19285;SDS011;9776;50.798;6.430;2023-05-17T01:32:55;6.22;;;3.00;;
19285;SDS011;9776;50.798;6.430;2023-05-17T01:35:24;5.85;;;3.10;;
19285;SDS011;9776;50.798;6.430;2023-05-17T01:37:51;5.25;;;2.83;;
19285;SDS011;9776;50.798;6.430;2023-05-17T01:40:18;5.57;;;3.28;;
19285;SDS011;9776;50.798;6.430;2023-05-17T01:42:46;4.85;;;3.08;;
19285;SDS011;9776;50.798;6.430;2023-05-17T01:45:20;4.63;;;3.03;;
19285;SDS011;9776;50.798;6.430;2023-05-17T01:47:52;5.03;;;3.03;;
19285;SDS011;9776;50.798;6.430;2023-05-17T01:50:26;4.78;;;2.90;;
19285;SDS011;9776;50.798;6.430;2023-05-17T01:52:58;7.70;;;3.38;;
19285;SDS011;9776;50.798;6.430;2023-05-17T01:55:32;4.32;;;2.95;;
19285;SDS011;9776;50.798;6.430;2023-05-17T01:58:05;6.28;;;3.28;;
19285;SDS011;9776;50.798;6.430;2023-05-17T02:00:34;7.40;;;3.20;;
19285;SDS011;9776;50.798;6.430;2023-05-17T02:03:03;6.43;;;3.28;;
19285;SDS011;9776;50.798;6.430;2023-05-17T02:05:30;5.25;;;3.15;;
19285;SDS011;9776;50.798;6.430;2023-05-17T02:07:57;5.28;;;2.90;;
19285;SDS011;9776;50.798;6.430;2023-05-17T02:10:23;8.40;;;3.25;;
19285;SDS011;9776;50.798;6.430;2023-05-17T02:12:50;6.85;;;3.33;;
19285;SDS011;9776;50.798;6.430;2023-05-17T02:15:17;8.30;;;3.28;;
19285;SDS011;9776;50.798;6.430;2023-05-17T02:17:45;7.25;;;3.30;;
19285;SDS011;9776;50.798;6.430;2023-05-17T02:20:12;5.70;;;3.22;;
19285;SDS011;9776;50.798;6.430;2023-05-17T02:22:39;8.77;;;2.90;;
19285;SDS011;9776;50.798;6.430;2023-05-17T02:25:06;9.85;;;3.53;;
19285;SDS011;9776;50.798;6.430;2023-05-17T02:27:33;7.57;;;3.50;;
19285;SDS011;9776;50.798;6.430;2023-05-17T02:30:00;11.85;;;3.22;;
19285;SDS011;9776;50.798;6.430;2023-05-17T02:32:28;5.50;;;3.40;;
19285;SDS011;9776;50.798;6.430;2023-05-17T02:34:56;7.75;;;3.60;;
19285;SDS011;9776;50.798;6.430;2023-05-17T02:37:23;6.07;;;3.22;;
19285;SDS011;9776;50.798;6.430;2023-05-17T02:39:49;5.50;;;3.22;;
19285;SDS011;9776;50.798;6.430;2023-05-17T02:42:16;10.52;;;3.50;;
19285;SDS011;9776;50.798;6.430;2023-05-17T02:44:43;6.45;;;3.30;;
19285;SDS011;9776;50.798;6.430;2023-05-17T02:47:09;8.27;;;3.55;;
19285;SDS011;9776;50.798;6.430;2023-05-17T02:49:36;8.02;;;3.90;;
19285;SDS011;9776;50.798;6.430;2023-05-17T02:52:05;7.10;;;3.67;;
19285;SDS011;9776;50.798;6.430;2023-05-17T02:54:32;7.13;;;3.45;;
19285;SDS011;9776;50.798;6.430;2023-05-17T02:56:58;8.50;;;4.03;;
19285;SDS011;9776;50.798;6.430;2023-05-17T02:59:25;9.02;;;3.92;;
19285;SDS011;9776;50.798;6.430;2023-05-17T03:01:52;6.55;;;3.55;;
19285;SDS011;9776;50.798;6.430;2023-05-17T03:04:18;8.18;;;3.60;;
19285;SDS011;9776;50.798;6.430;2023-05-17T03:06:45;8.77;;;3.85;;
19285;SDS011;9776;50.798;6.430;2023-05-17T03:09:13;8.50;;;3.40;;
19285;SDS011;9776;50.798;6.430;2023-05-17T03:11:40;8.23;;;3.83;;
19285;SDS011;9776;50.798;6.430;2023-05-17T03:14:06;8.40;;;3.90;;
19285;SDS011;9776;50.798;6.430;2023-05-17T03:16:33;8.40;;;4.35;;
19285;SDS011;9776;50.798;6.430;2023-05-17T03:19:00;7.38;;;3.90;;
19285;SDS011;9776;50.798;6.430;2023-05-17T03:21:27;5.72;;;3.90;;
19285;SDS011;9776;50.798;6.430;2023-05-17T03:23:54;7.45;;;4.10;;
19285;SDS011;9776;50.798;6.430;2023-05-17T03:26:23;9.00;;;4.30;;
19285;SDS011;9776;50.798;6.430;2023-05-17T03:28:51;9.70;;;3.88;;
19285;SDS011;9776;50.798;6.430;2023-05-17T03:31:18;8.95;;;3.97;;
19285;SDS011;9776;50.798;6.430;2023-05-17T03:33:44;9.55;;;3.63;;
19285;SDS011;9776;50.798;6.430;2023-05-17T03:36:11;8.65;;;4.10;;
19285;SDS011;9776;50.798;6.430;2023-05-17T03:38:38;8.05;;;4.32;;
19285;SDS011;9776;50.798;6.430;2023-05-17T03:41:04;10.93;;;4.28;;
19285;SDS011;9776;50.798;6.430;2023-05-17T03:43:33;11.23;;;4.72;;
19285;SDS011;9776;50.798;6.430;2023-05-17T03:45:59;10.00;;;4.88;;
19285;SDS011;9776;50.798;6.430;2023-05-17T03:48:26;8.90;;;3.88;;
19285;SDS011;9776;50.798;6.430;2023-05-17T03:50:53;9.55;;;4.60;;
19285;SDS011;9776;50.798;6.430;2023-05-17T03:53:20;9.57;;;4.25;;
19285;SDS011;9776;50.798;6.430;2023-05-17T03:55:47;9.60;;;4.65;;
19285;SDS011;9776;50.798;6.430;2023-05-17T03:58:13;10.60;;;4.82;;
19285;SDS011;9776;50.798;6.430;2023-05-17T04:00:42;12.20;;;4.97;;
19285;SDS011;9776;50.798;6.430;2023-05-17T04:03:08;9.70;;;4.50;;
19285;SDS011;9776;50.798;6.430;2023-05-17T04:05:38;7.70;;;4.82;;
19285;SDS011;9776;50.798;6.430;2023-05-17T04:08:05;9.45;;;4.28;;
19285;SDS011;9776;50.798;6.430;2023-05-17T04:10:32;8.98;;;4.57;;
19285;SDS011;9776;50.798;6.430;2023-05-17T04:12:59;11.23;;;4.57;;
19285;SDS011;9776;50.798;6.430;2023-05-17T04:15:25;12.38;;;5.35;;
19285;SDS011;9776;50.798;6.430;2023-05-17T04:17:54;16.33;;;5.68;;
19285;SDS011;9776;50.798;6.430;2023-05-17T04:20:20;12.95;;;6.05;;
19285;SDS011;9776;50.798;6.430;2023-05-17T04:22:47;14.52;;;5.80;;
19285;SDS011;9776;50.798;6.430;2023-05-17T04:25:14;13.55;;;6.60;;
19285;SDS011;9776;50.798;6.430;2023-05-17T04:27:41;14.43;;;6.07;;
19285;SDS011;9776;50.798;6.430;2023-05-17T04:30:08;14.90;;;6.47;;
19285;SDS011;9776;50.798;6.430;2023-05-17T04:32:36;14.27;;;5.85;;
19285;SDS011;9776;50.798;6.430;2023-05-17T04:35:04;13.88;;;7.00;;
19285;SDS011;9776;50.798;6.430;2023-05-17T04:37:31;15.18;;;6.50;;
19285;SDS011;9776;50.798;6.430;2023-05-17T04:39:58;15.10;;;7.22;;
19285;SDS011;9776;50.798;6.430;2023-05-17T04:42:25;17.65;;;7.35;;
19285;SDS011;9776;50.798;6.430;2023-05-17T04:44:52;16.98;;;7.72;;
19285;SDS011;9776;50.798;6.430;2023-05-17T04:47:18;14.90;;;7.18;;
19285;SDS011;9776;50.798;6.430;2023-05-17T04:49:45;15.85;;;7.88;;
19285;SDS011;9776;50.798;6.430;2023-05-17T04:52:14;15.25;;;7.82;;
19285;SDS011;9776;50.798;6.430;2023-05-17T04:54:40;15.30;;;8.25;;
19285;SDS011;9776;50.798;6.430;2023-05-17T04:57:07;13.60;;;7.40;;
19285;SDS011;9776;50.798;6.430;2023-05-17T04:59:34;15.13;;;7.63;;
19285;SDS011;9776;50.798;6.430;2023-05-17T05:02:00;21.25;;;8.90;;
19285;SDS011;9776;50.798;6.430;2023-05-17T05:04:27;19.42;;;7.80;;
19285;SDS011;9776;50.798;6.430;2023-05-17T05:06:54;17.13;;;7.20;;
19285;SDS011;9776;50.798;6.430;2023-05-17T05:09:22;12.52;;;7.15;;
19285;SDS011;9776;50.798;6.430;2023-05-17T05:11:49;18.48;;;7.93;;
19285;SDS011;9776;50.798;6.430;2023-05-17T05:14:15;18.15;;;7.50;;
19285;SDS011;9776;50.798;6.430;2023-05-17T05:16:42;17.25;;;7.93;;
19285;SDS011;9776;50.798;6.430;2023-05-17T05:19:09;13.88;;;7.25;;
19285;SDS011;9776;50.798;6.430;2023-05-17T05:21:35;13.38;;;7.60;;
19285;SDS011;9776;50.798;6.430;2023-05-17T05:24:02;15.80;;;7.65;;
19285;SDS011;9776;50.798;6.430;2023-05-17T05:26:30;18.50;;;8.55;;
19285;SDS011;9776;50.798;6.430;2023-05-17T05:28:57;15.75;;;7.30;;
19285;SDS011;9776;50.798;6.430;2023-05-17T05:31:24;17.65;;;7.82;;
19285;SDS011;9776;50.798;6.430;2023-05-17T05:33:51;15.63;;;7.20;;
19285;SDS011;9776;50.798;6.430;2023-05-17T05:36:17;19.50;;;7.72;;
19285;SDS011;9776;50.798;6.430;2023-05-17T05:38:44;18.83;;;7.57;;
19285;SDS011;9776;50.798;6.430;2023-05-17T05:41:11;18.60;;;7.25;;
19285;SDS011;9776;50.798;6.430;2023-05-17T05:43:39;15.35;;;7.15;;
19285;SDS011;9776;50.798;6.430;2023-05-17T05:46:06;17.42;;;8.25;;
19285;SDS011;9776;50.798;6.430;2023-05-17T05:48:33;18.90;;;7.47;;
19285;SDS011;9776;50.798;6.430;2023-05-17T05:51:03;14.27;;;7.82;;
19285;SDS011;9776;50.798;6.430;2023-05-17T05:53:30;15.68;;;8.38;;
19285;SDS011;9776;50.798;6.430;2023-05-17T05:55:57;20.77;;;8.15;;
19285;SDS011;9776;50.798;6.430;2023-05-17T05:58:23;19.67;;;7.80;;
19285;SDS011;9776;50.798;6.430;2023-05-17T06:00:52;19.10;;;9.07;;
19285;SDS011;9776;50.798;6.430;2023-05-17T06:03:18;17.95;;;7.82;;
19285;SDS011;9776;50.798;6.430;2023-05-17T06:05:45;13.45;;;7.28;;
19285;SDS011;9776;50.798;6.430;2023-05-17T06:08:12;15.93;;;7.97;;
19285;SDS011;9776;50.798;6.430;2023-05-17T06:10:39;18.17;;;7.85;;
19285;SDS011;9776;50.798;6.430;2023-05-17T06:13:05;22.92;;;8.52;;
19285;SDS011;9776;50.798;6.430;2023-05-17T06:15:32;21.23;;;7.97;;
19285;SDS011;9776;50.798;6.430;2023-05-17T06:18:00;18.65;;;7.15;;
19285;SDS011;9776;50.798;6.430;2023-05-17T06:20:27;17.02;;;7.07;;
19285;SDS011;9776;50.798;6.430;2023-05-17T06:22:54;16.42;;;8.02;;
19285;SDS011;9776;50.798;6.430;2023-05-17T06:25:21;16.08;;;7.10;;
19285;SDS011;9776;50.798;6.430;2023-05-17T06:27:47;15.85;;;7.47;;
19285;SDS011;9776;50.798;6.430;2023-05-17T06:30:14;15.52;;;7.85;;
19285;SDS011;9776;50.798;6.430;2023-05-17T06:32:41;16.27;;;8.15;;
19285;SDS011;9776;50.798;6.430;2023-05-17T06:35:09;19.08;;;8.65;;
19285;SDS011;9776;50.798;6.430;2023-05-17T06:37:36;17.33;;;8.32;;
19285;SDS011;9776;50.798;6.430;2023-05-17T06:40:03;14.73;;;7.93;;
19285;SDS011;9776;50.798;6.430;2023-05-17T06:42:31;13.38;;;7.88;;
19285;SDS011;9776;50.798;6.430;2023-05-17T06:44:58;15.40;;;8.00;;
19285;SDS011;9776;50.798;6.430;2023-05-17T06:47:25;17.70;;;8.13;;
19285;SDS011;9776;50.798;6.430;2023-05-17T06:49:52;17.30;;;8.27;;
19285;SDS011;9776;50.798;6.430;2023-05-17T06:52:21;19.75;;;8.75;;
19285;SDS011;9776;50.798;6.430;2023-05-17T06:54:48;19.45;;;7.97;;
19285;SDS011;9776;50.798;6.430;2023-05-17T06:57:14;18.63;;;7.82;;
19285;SDS011;9776;50.798;6.430;2023-05-17T06:59:41;13.68;;;7.13;;
19285;SDS011;9776;50.798;6.430;2023-05-17T07:02:08;20.55;;;7.32;;
19285;SDS011;9776;50.798;6.430;2023-05-17T07:04:34;11.73;;;6.55;;
19285;SDS011;9776;50.798;6.430;2023-05-17T07:07:01;14.30;;;6.90;;
19285;SDS011;9776;50.798;6.430;2023-05-17T07:09:30;14.30;;;6.30;;
19285;SDS011;9776;50.798;6.430;2023-05-17T07:11:56;14.07;;;6.85;;
19285;SDS011;9776;50.798;6.430;2023-05-17T07:14:23;14.88;;;6.30;;
19285;SDS011;9776;50.798;6.430;2023-05-17T07:16:50;16.67;;;7.25;;
19285;SDS011;9776;50.798;6.430;2023-05-17T07:19:17;15.27;;;7.03;;
19285;SDS011;9776;50.798;6.430;2023-05-17T07:21:44;15.35;;;6.22;;
19285;SDS011;9776;50.798;6.430;2023-05-17T07:24:10;12.18;;;6.40;;
19285;SDS011;9776;50.798;6.430;2023-05-17T07:26:38;15.45;;;6.25;;
19285;SDS011;9776;50.798;6.430;2023-05-17T07:29:05;14.85;;;6.43;;
19285;SDS011;9776;50.798;6.430;2023-05-17T07:31:32;17.67;;;7.07;;
19285;SDS011;9776;50.798;6.430;2023-05-17T07:33:59;11.82;;;5.70;;
19285;SDS011;9776;50.798;6.430;2023-05-17T07:36:25;14.68;;;6.20;;
19285;SDS011;9776;50.798;6.430;2023-05-17T07:38:54;19.15;;;6.38;;
19285;SDS011;9776;50.798;6.430;2023-05-17T07:41:21;13.95;;;6.15;;
19285;SDS011;9776;50.798;6.430;2023-05-17T07:43:49;11.07;;;5.28;;
19285;SDS011;9776;50.798;6.430;2023-05-17T07:46:16;10.60;;;5.28;;
19285;SDS011;9776;50.798;6.430;2023-05-17T07:48:43;16.15;;;5.28;;
19285;SDS011;9776;50.798;6.430;2023-05-17T07:51:10;11.20;;;4.63;;
19285;SDS011;9776;50.798;6.430;2023-05-17T07:53:37;14.52;;;5.10;;
19285;SDS011;9776;50.798;6.430;2023-05-17T07:56:04;13.20;;;4.40;;
19285;SDS011;9776;50.798;6.430;2023-05-17T07:58:31;9.07;;;4.38;;
19285;SDS011;9776;50.798;6.430;2023-05-17T08:00:59;11.07;;;4.35;;
19285;SDS011;9776;50.798;6.430;2023-05-17T08:03:26;6.90;;;3.92;;
19285;SDS011;9776;50.798;6.430;2023-05-17T08:05:53;8.98;;;4.00;;
19285;SDS011;9776;50.798;6.430;2023-05-17T08:08:20;9.85;;;3.88;;
19285;SDS011;9776;50.798;6.430;2023-05-17T08:10:47;11.43;;;3.83;;
19285;SDS011;9776;50.798;6.430;2023-05-17T08:13:14;10.27;;;4.00;;
19285;SDS011;9776;50.798;6.430;2023-05-17T08:15:41;10.70;;;3.80;;
19285;SDS011;9776;50.798;6.430;2023-05-17T08:18:09;10.00;;;3.25;;
19285;SDS011;9776;50.798;6.430;2023-05-17T08:20:36;7.93;;;3.08;;
19285;SDS011;9776;50.798;6.430;2023-05-17T08:23:03;11.68;;;3.20;;
19285;SDS011;9776;50.798;6.430;2023-05-17T08:25:30;10.18;;;2.63;;
19285;SDS011;9776;50.798;6.430;2023-05-17T08:27:57;9.82;;;3.15;;
19285;SDS011;9776;50.798;6.430;2023-05-17T08:30:24;9.20;;;3.05;;
19285;SDS011;9776;50.798;6.430;2023-05-17T08:32:51;8.95;;;3.15;;
19285;SDS011;9776;50.798;6.430;2023-05-17T08:35:21;8.13;;;2.85;;
19285;SDS011;9776;50.798;6.430;2023-05-17T08:37:48;11.75;;;3.28;;
19285;SDS011;9776;50.798;6.430;2023-05-17T08:40:14;8.10;;;2.85;;
19285;SDS011;9776;50.798;6.430;2023-05-17T08:42:44;8.07;;;2.58;;
19285;SDS011;9776;50.798;6.430;2023-05-17T08:45:11;6.90;;;2.15;;
19285;SDS011;9776;50.798;6.430;2023-05-17T08:47:40;8.32;;;2.72;;
19285;SDS011;9776;50.798;6.430;2023-05-17T08:50:10;8.18;;;2.45;;
19285;SDS011;9776;50.798;6.430;2023-05-17T08:52:40;8.80;;;2.10;;
19285;SDS011;9776;50.798;6.430;2023-05-17T08:55:09;5.32;;;2.10;;
19285;SDS011;9776;50.798;6.430;2023-05-17T08:57:40;6.90;;;2.08;;
19285;SDS011;9776;50.798;6.430;2023-05-17T09:00:07;6.82;;;1.75;;
19285;SDS011;9776;50.798;6.430;2023-05-17T09:02:39;5.10;;;1.33;;
19285;SDS011;9776;50.798;6.430;2023-05-17T09:05:07;8.40;;;1.25;;
19285;SDS011;9776;50.798;6.430;2023-05-17T09:07:35;4.40;;;1.13;;
19285;SDS011;9776;50.798;6.430;2023-05-17T09:10:03;5.63;;;1.40;;
19285;SDS011;9776;50.798;6.430;2023-05-17T09:12:30;5.85;;;1.40;;
19285;SDS011;9776;50.798;6.430;2023-05-17T09:15:12;6.38;;;1.45;;
19285;SDS011;9776;50.798;6.430;2023-05-17T09:17:40;4.88;;;0.95;;
19285;SDS011;9776;50.798;6.430;2023-05-17T09:20:07;4.47;;;1.77;;
19285;SDS011;9776;50.798;6.430;2023-05-17T09:22:35;6.10;;;1.45;;
19285;SDS011;9776;50.798;6.430;2023-05-17T09:25:04;5.07;;;1.13;;
19285;SDS011;9776;50.798;6.430;2023-05-17T09:27:31;5.97;;;1.27;;
19285;SDS011;9776;50.798;6.430;2023-05-17T09:29:58;3.10;;;0.90;;
19285;SDS011;9776;50.798;6.430;2023-05-17T09:32:24;5.57;;;1.30;;
19285;SDS011;9776;50.798;6.430;2023-05-17T09:34:52;4.28;;;1.35;;
19285;SDS011;9776;50.798;6.430;2023-05-17T09:37:20;4.93;;;1.13;;
19285;SDS011;9776;50.798;6.430;2023-05-17T09:39:47;6.13;;;1.15;;
19285;SDS011;9776;50.798;6.430;2023-05-17T09:42:16;4.97;;;1.40;;
19285;SDS011;9776;50.798;6.430;2023-05-17T09:44:46;7.32;;;1.88;;
19285;SDS011;9776;50.798;6.430;2023-05-17T09:47:21;3.30;;;1.00;;
19285;SDS011;9776;50.798;6.430;2023-05-17T09:49:49;4.45;;;1.73;;
19285;SDS011;9776;50.798;6.430;2023-05-17T09:52:16;3.38;;;0.98;;
19285;SDS011;9776;50.798;6.430;2023-05-17T09:54:50;3.35;;;0.98;;
19285;SDS011;9776;50.798;6.430;2023-05-17T09:57:19;5.28;;;1.45;;
19285;SDS011;9776;50.798;6.430;2023-05-17T09:59:46;4.35;;;1.40;;
19285;SDS011;9776;50.798;6.430;2023-05-17T10:02:17;5.68;;;1.50;;
19285;SDS011;9776;50.798;6.430;2023-05-17T10:04:46;5.70;;;1.20;;
19285;SDS011;9776;50.798;6.430;2023-05-17T10:07:15;8.13;;;1.50;;
19285;SDS011;9776;50.798;6.430;2023-05-17T10:09:45;4.43;;;1.30;;
19285;SDS011;9776;50.798;6.430;2023-05-17T10:12:12;3.30;;;1.08;;
19285;SDS011;9776;50.798;6.430;2023-05-17T10:14:43;5.97;;;1.70;;
19285;SDS011;9776;50.798;6.430;2023-05-17T10:17:11;5.25;;;1.30;;
19285;SDS011;9776;50.798;6.430;2023-05-17T10:19:39;2.78;;;1.02;;
19285;SDS011;9776;50.798;6.430;2023-05-17T10:22:06;6.25;;;1.60;;
19285;SDS011;9776;50.798;6.430;2023-05-17T10:24:34;3.58;;;1.33;;
19285;SDS011;9776;50.798;6.430;2023-05-17T10:27:02;4.70;;;1.33;;
19285;SDS011;9776;50.798;6.430;2023-05-17T10:29:31;6.47;;;1.33;;
19285;SDS011;9776;50.798;6.430;2023-05-17T10:32:03;5.50;;;1.45;;
19285;SDS011;9776;50.798;6.430;2023-05-17T10:34:31;5.18;;;1.38;;
19285;SDS011;9776;50.798;6.430;2023-05-17T10:36:59;6.75;;;1.20;;
19285;SDS011;9776;50.798;6.430;2023-05-17T10:39:28;3.88;;;1.20;;
19285;SDS011;9776;50.798;6.430;2023-05-17T10:41:58;6.35;;;1.10;;
19285;SDS011;9776;50.798;6.430;2023-05-17T10:44:28;5.60;;;1.25;;
19285;SDS011;9776;50.798;6.430;2023-05-17T10:46:57;7.55;;;1.45;;
19285;SDS011;9776;50.798;6.430;2023-05-17T10:49:28;5.07;;;1.25;;
19285;SDS011;9776;50.798;6.430;2023-05-17T10:51:57;5.50;;;1.20;;
19285;SDS011;9776;50.798;6.430;2023-05-17T10:54:34;5.78;;;1.70;;
19285;SDS011;9776;50.798;6.430;2023-05-17T10:57:03;8.10;;;1.90;;
19285;SDS011;9776;50.798;6.430;2023-05-17T10:59:31;4.25;;;1.10;;
19285;SDS011;9776;50.798;6.430;2023-05-17T11:02:00;4.03;;;1.17;;
19285;SDS011;9776;50.798;6.430;2023-05-17T11:04:34;4.40;;;1.00;;
19285;SDS011;9776;50.798;6.430;2023-05-17T11:07:21;8.75;;;1.90;;
19285;SDS011;9776;50.798;6.430;2023-05-17T11:09:52;4.40;;;1.45;;
19285;SDS011;9776;50.798;6.430;2023-05-17T11:15:07;7.93;;;1.40;;
19285;SDS011;9776;50.798;6.430;2023-05-17T11:17:35;4.45;;;1.15;;
19285;SDS011;9776;50.798;6.430;2023-05-17T11:20:30;9.75;;;1.27;;
19285;SDS011;9776;50.798;6.430;2023-05-17T11:22:59;6.72;;;1.30;;
19285;SDS011;9776;50.798;6.430;2023-05-17T11:25:28;3.92;;;1.35;;
19285;SDS011;9776;50.798;6.430;2023-05-17T11:27:56;4.65;;;1.15;;
19285;SDS011;9776;50.798;6.430;2023-05-17T11:30:24;5.20;;;1.30;;
19285;SDS011;9776;50.798;6.430;2023-05-17T11:32:53;5.25;;;1.50;;
19285;SDS011;9776;50.798;6.430;2023-05-17T11:35:25;3.55;;;0.90;;
19285;SDS011;9776;50.798;6.430;2023-05-17T11:38:11;4.50;;;1.00;;
19285;SDS011;9776;50.798;6.430;2023-05-17T11:40:39;6.28;;;1.50;;
19285;SDS011;9776;50.798;6.430;2023-05-17T11:43:13;2.60;;;0.95;;
19285;SDS011;9776;50.798;6.430;2023-05-17T11:45:41;4.93;;;1.13;;
19285;SDS011;9776;50.798;6.430;2023-05-17T11:48:09;5.10;;;1.25;;
19285;SDS011;9776;50.798;6.430;2023-05-17T11:50:37;7.22;;;1.30;;
19285;SDS011;9776;50.798;6.430;2023-05-17T11:53:06;7.85;;;1.40;;
19285;SDS011;9776;50.798;6.430;2023-05-17T11:55:35;4.75;;;1.30;;
19285;SDS011;9776;50.798;6.430;2023-05-17T11:58:05;5.95;;;1.00;;
19285;SDS011;9776;50.798;6.430;2023-05-17T12:00:34;6.88;;;1.65;;
19285;SDS011;9776;50.798;6.430;2023-05-17T12:03:17;4.45;;;1.13;;
19285;SDS011;9776;50.798;6.430;2023-05-17T12:05:45;6.97;;;1.40;;
19285;SDS011;9776;50.798;6.430;2023-05-17T12:08:16;5.50;;;1.15;;
19285;SDS011;9776;50.798;6.430;2023-05-17T12:10:45;5.28;;;1.30;;
19285;SDS011;9776;50.798;6.430;2023-05-17T12:13:13;4.28;;;1.20;;
19285;SDS011;9776;50.798;6.430;2023-05-17T12:15:40;4.00;;;1.20;;
19285;SDS011;9776;50.798;6.430;2023-05-17T12:18:11;5.03;;;1.05;;
19285;SDS011;9776;50.798;6.430;2023-05-17T12:20:37;4.82;;;1.27;;
19285;SDS011;9776;50.798;6.430;2023-05-17T12:23:04;3.88;;;1.23;;
19285;SDS011;9776;50.798;6.430;2023-05-17T12:25:32;4.80;;;1.10;;
19285;SDS011;9776;50.798;6.430;2023-05-17T12:28:11;5.72;;;1.38;;
19285;SDS011;9776;50.798;6.430;2023-05-17T12:30:39;3.65;;;1.17;;
19285;SDS011;9776;50.798;6.430;2023-05-17T12:33:05;5.97;;;1.30;;
19285;SDS011;9776;50.798;6.430;2023-05-17T12:35:33;5.47;;;1.42;;
19285;SDS011;9776;50.798;6.430;2023-05-17T12:38:00;3.92;;;1.00;;
19285;SDS011;9776;50.798;6.430;2023-05-17T12:40:27;3.83;;;1.27;;
19285;SDS011;9776;50.798;6.430;2023-05-17T12:43:01;4.32;;;1.10;;
19285;SDS011;9776;50.798;6.430;2023-05-17T12:45:28;4.10;;;1.20;;
19285;SDS011;9776;50.798;6.430;2023-05-17T12:47:55;4.93;;;1.10;;
19285;SDS011;9776;50.798;6.430;2023-05-17T12:50:25;7.47;;;1.33;;
19285;SDS011;9776;50.798;6.430;2023-05-17T12:52:55;6.07;;;1.45;;
19285;SDS011;9776;50.798;6.430;2023-05-17T12:55:22;4.47;;;1.08;;
19285;SDS011;9776;50.798;6.430;2023-05-17T12:57:49;5.72;;;1.42;;
19285;SDS011;9776;50.798;6.430;2023-05-17T13:00:18;7.25;;;1.48;;
19285;SDS011;9776;50.798;6.430;2023-05-17T13:02:45;6.20;;;2.10;;
19285;SDS011;9776;50.798;6.430;2023-05-17T13:05:13;5.22;;;1.33;;
19285;SDS011;9776;50.798;6.430;2023-05-17T13:07:42;4.07;;;0.90;;
19285;SDS011;9776;50.798;6.430;2023-05-17T13:10:18;4.15;;;1.10;;
19285;SDS011;9776;50.798;6.430;2023-05-17T13:12:53;6.35;;;1.73;;
19285;SDS011;9776;50.798;6.430;2023-05-17T13:15:26;4.53;;;1.42;;
19285;SDS011;9776;50.798;6.430;2023-05-17T13:17:54;5.72;;;1.60;;
19285;SDS011;9776;50.798;6.430;2023-05-17T13:20:20;4.07;;;1.30;;
19285;SDS011;9776;50.798;6.430;2023-05-17T13:22:48;5.22;;;1.30;;
19285;SDS011;9776;50.798;6.430;2023-05-17T13:25:15;4.72;;;1.25;;
19285;SDS011;9776;50.798;6.430;2023-05-17T13:27:42;3.97;;;1.30;;
19285;SDS011;9776;50.798;6.430;2023-05-17T13:30:12;5.43;;;1.20;;
19285;SDS011;9776;50.798;6.430;2023-05-17T13:32:42;7.20;;;1.52;;
19285;SDS011;9776;50.798;6.430;2023-05-17T13:35:11;4.60;;;1.38;;
19285;SDS011;9776;50.798;6.430;2023-05-17T13:37:38;4.07;;;1.05;;
19285;SDS011;9776;50.798;6.430;2023-05-17T13:40:05;3.28;;;1.00;;
19285;SDS011;9776;50.798;6.430;2023-05-17T13:42:33;5.55;;;1.50;;
19285;SDS011;9776;50.798;6.430;2023-05-17T13:44:59;5.03;;;1.70;;
19285;SDS011;9776;50.798;6.430;2023-05-17T13:47:26;5.55;;;1.60;;
19285;SDS011;9776;50.798;6.430;2023-05-17T13:49:57;3.75;;;1.27;;
19285;SDS011;9776;50.798;6.430;2023-05-17T13:52:25;3.83;;;1.25;;
19285;SDS011;9776;50.798;6.430;2023-05-17T13:54:52;4.75;;;1.25;;
19285;SDS011;9776;50.798;6.430;2023-05-17T13:57:19;3.22;;;1.45;;
19285;SDS011;9776;50.798;6.430;2023-05-17T13:59:46;2.88;;;1.33;;
19285;SDS011;9776;50.798;6.430;2023-05-17T14:02:13;5.13;;;1.45;;
19285;SDS011;9776;50.798;6.430;2023-05-17T14:04:39;5.45;;;1.30;;
19285;SDS011;9776;50.798;6.430;2023-05-17T14:07:08;3.17;;;1.40;;
19285;SDS011;9776;50.798;6.430;2023-05-17T14:09:35;3.42;;;1.60;;
19285;SDS011;9776;50.798;6.430;2023-05-17T14:12:03;4.68;;;1.38;;
19285;SDS011;9776;50.798;6.430;2023-05-17T14:14:31;5.22;;;1.65;;
19285;SDS011;9776;50.798;6.430;2023-05-17T14:16:58;5.25;;;1.38;;
19285;SDS011;9776;50.798;6.430;2023-05-17T14:19:25;3.80;;;1.10;;
19285;SDS011;9776;50.798;6.430;2023-05-17T14:21:52;4.80;;;1.75;;
19285;SDS011;9776;50.798;6.430;2023-05-17T14:24:20;5.50;;;1.50;;
19285;SDS011;9776;50.798;6.430;2023-05-17T14:26:47;4.50;;;1.67;;
19285;SDS011;9776;50.798;6.430;2023-05-17T14:29:14;5.43;;;1.60;;
19285;SDS011;9776;50.798;6.430;2023-05-17T14:31:41;5.95;;;1.60;;
19285;SDS011;9776;50.798;6.430;2023-05-17T14:34:08;5.93;;;1.40;;
19285;SDS011;9776;50.798;6.430;2023-05-17T14:36:35;5.32;;;1.40;;
19285;SDS011;9776;50.798;6.430;2023-05-17T14:39:02;5.93;;;1.50;;
19285;SDS011;9776;50.798;6.430;2023-05-17T14:41:30;4.80;;;1.33;;
19285;SDS011;9776;50.798;6.430;2023-05-17T14:43:57;5.75;;;1.60;;
19285;SDS011;9776;50.798;6.430;2023-05-17T14:46:24;4.38;;;1.50;;
19285;SDS011;9776;50.798;6.430;2023-05-17T14:48:51;4.50;;;1.27;;
19285;SDS011;9776;50.798;6.430;2023-05-17T14:51:17;4.28;;;1.50;;
19285;SDS011;9776;50.798;6.430;2023-05-17T14:53:44;5.30;;;1.60;;
19285;SDS011;9776;50.798;6.430;2023-05-17T14:56:11;6.97;;;1.80;;
19285;SDS011;9776;50.798;6.430;2023-05-17T14:58:40;4.68;;;1.60;;
19285;SDS011;9776;50.798;6.430;2023-05-17T15:01:07;4.90;;;2.03;;
19285;SDS011;9776;50.798;6.430;2023-05-17T15:03:34;4.60;;;1.70;;
19285;SDS011;9776;50.798;6.430;2023-05-17T15:06:01;6.13;;;1.50;;